sensor_id;sensor_type;location;lat;lon;timestamp;P1;durP1;ratioP1;P2;durP2;ratioP2
17141;SDS011;32805;53.556;9.944;2023-10-19T00:00:19;10.60;;;7.22;;
17141;SDS011;32805;53.556;9.944;2023-10-19T00:02:48;10.73;;;7.00;;
17141;SDS011;32805;53.556;9.944;2023-10-19T00:05:18;8.52;;;6.85;;
17141;SDS011;32805;53.556;9.944;2023-10-19T00:07:44;8.40;;;7.32;;
17141;SDS011;32805;53.556;9.944;2023-10-19T00:10:12;8.30;;;6.63;;
17141;SDS011;32805;53.556;9.944;2023-10-19T00:12:42;9.18;;;6.90;;
17141;SDS011;32805;53.556;9.944;2023-10-19T00:15:17;9.82;;;7.03;;
17141;SDS011;32805;53.556;9.944;2023-10-19T00:17:49;8.20;;;7.15;;
17141;SDS011;32805;53.556;9.944;2023-10-19T00:20:20;8.15;;;7.22;;
17141;SDS011;32805;53.556;9.944;2023-10-19T00:23:03;10.90;;;7.38;;
17141;SDS011;32805;53.556;9.944;2023-10-19T00:25:32;10.93;;;7.95;;
17141;SDS011;32805;53.556;9.944;2023-10-19T00:28:01;9.82;;;7.53;;
17141;SDS011;32805;53.556;9.944;2023-10-19T00:30:32;10.98;;;8.30;;
17141;SDS011;32805;53.556;9.944;2023-10-19T00:33:02;9.93;;;7.45;;
17141;SDS011;32805;53.556;9.944;2023-10-19T00:35:33;12.02;;;7.80;;
17141;SDS011;32805;53.556;9.944;2023-10-19T00:38:02;10.27;;;8.05;;
17141;SDS011;32805;53.556;9.944;2023-10-19T00:40:53;12.32;;;8.18;;
17141;SDS011;32805;53.556;9.944;2023-10-19T00:43:28;11.55;;;7.93;;
17141;SDS011;32805;53.556;9.944;2023-10-19T00:46:00;12.57;;;8.60;;
17141;SDS011;32805;53.556;9.944;2023-10-19T00:48:33;8.73;;;7.43;;
17141;SDS011;32805;53.556;9.944;2023-10-19T00:51:01;11.35;;;8.27;;
17141;SDS011;32805;53.556;9.944;2023-10-19T00:53:36;9.55;;;7.93;;
17141;SDS011;32805;53.556;9.944;2023-10-19T00:56:06;10.75;;;7.60;;
17141;SDS011;32805;53.556;9.944;2023-10-19T00:58:36;10.65;;;7.85;;
17141;SDS011;32805;53.556;9.944;2023-10-19T01:01:07;10.45;;;7.95;;
17141;SDS011;32805;53.556;9.944;2023-10-19T01:03:35;9.65;;;8.00;;
17141;SDS011;32805;53.556;9.944;2023-10-19T01:06:05;10.70;;;7.88;;
17141;SDS011;32805;53.556;9.944;2023-10-19T01:08:38;10.95;;;7.70;;
17141;SDS011;32805;53.556;9.944;2023-10-19T01:11:09;12.77;;;8.70;;
17141;SDS011;32805;53.556;9.944;2023-10-19T01:13:38;9.52;;;8.13;;
17141;SDS011;32805;53.556;9.944;2023-10-19T01:16:14;10.75;;;7.82;;
17141;SDS011;32805;53.556;9.944;2023-10-19T01:18:50;10.90;;;8.48;;
17141;SDS011;32805;53.556;9.944;2023-10-19T01:21:22;11.02;;;7.60;;
17141;SDS011;32805;53.556;9.944;2023-10-19T01:23:55;11.88;;;8.45;;
17141;SDS011;32805;53.556;9.944;2023-10-19T01:26:24;9.75;;;7.93;;
17141;SDS011;32805;53.556;9.944;2023-10-19T01:28:53;10.15;;;8.20;;
17141;SDS011;32805;53.556;9.944;2023-10-19T01:31:27;9.10;;;7.20;;
17141;SDS011;32805;53.556;9.944;2023-10-19T01:34:04;11.10;;;8.02;;
17141;SDS011;32805;53.556;9.944;2023-10-19T01:36:33;10.80;;;8.02;;
17141;SDS011;32805;53.556;9.944;2023-10-19T01:39:09;9.82;;;7.72;;
17141;SDS011;32805;53.556;9.944;2023-10-19T01:41:37;11.25;;;7.82;;
17141;SDS011;32805;53.556;9.944;2023-10-19T01:44:07;8.38;;;7.10;;
17141;SDS011;32805;53.556;9.944;2023-10-19T01:46:34;9.52;;;7.68;;
17141;SDS011;32805;53.556;9.944;2023-10-19T01:49:03;11.27;;;8.20;;
17141;SDS011;32805;53.556;9.944;2023-10-19T01:51:30;10.30;;;7.57;;
17141;SDS011;32805;53.556;9.944;2023-10-19T01:53:59;9.52;;;8.27;;
17141;SDS011;32805;53.556;9.944;2023-10-19T01:56:28;11.60;;;8.20;;
17141;SDS011;32805;53.556;9.944;2023-10-19T01:58:56;9.05;;;7.55;;
17141;SDS011;32805;53.556;9.944;2023-10-19T02:01:24;12.05;;;8.05;;
17141;SDS011;32805;53.556;9.944;2023-10-19T02:03:57;11.63;;;7.50;;
17141;SDS011;32805;53.556;9.944;2023-10-19T02:06:25;10.52;;;7.35;;
17141;SDS011;32805;53.556;9.944;2023-10-19T02:09:02;9.55;;;7.90;;
17141;SDS011;32805;53.556;9.944;2023-10-19T02:11:36;11.93;;;7.88;;
17141;SDS011;32805;53.556;9.944;2023-10-19T02:14:08;11.27;;;8.05;;
17141;SDS011;32805;53.556;9.944;2023-10-19T02:16:41;9.80;;;7.47;;
17141;SDS011;32805;53.556;9.944;2023-10-19T02:19:08;9.77;;;7.75;;
17141;SDS011;32805;53.556;9.944;2023-10-19T02:21:36;12.25;;;7.88;;
17141;SDS011;32805;53.556;9.944;2023-10-19T02:24:06;10.02;;;7.57;;
17141;SDS011;32805;53.556;9.944;2023-10-19T02:26:34;10.98;;;7.82;;
17141;SDS011;32805;53.556;9.944;2023-10-19T02:29:03;10.15;;;7.90;;
17141;SDS011;32805;53.556;9.944;2023-10-19T02:31:34;11.88;;;7.85;;
17141;SDS011;32805;53.556;9.944;2023-10-19T02:34:00;10.57;;;7.88;;
17141;SDS011;32805;53.556;9.944;2023-10-19T02:36:28;8.52;;;7.43;;
17141;SDS011;32805;53.556;9.944;2023-10-19T02:38:57;9.80;;;8.13;;
17141;SDS011;32805;53.556;9.944;2023-10-19T02:41:25;9.77;;;8.02;;
17141;SDS011;32805;53.556;9.944;2023-10-19T02:43:54;11.32;;;8.15;;
17141;SDS011;32805;53.556;9.944;2023-10-19T02:46:29;11.27;;;8.18;;
17141;SDS011;32805;53.556;9.944;2023-10-19T02:48:59;12.25;;;8.70;;
17141;SDS011;32805;53.556;9.944;2023-10-19T02:51:27;12.98;;;8.63;;
17141;SDS011;32805;53.556;9.944;2023-10-19T02:53:54;13.27;;;8.23;;
17141;SDS011;32805;53.556;9.944;2023-10-19T02:56:21;10.52;;;8.35;;
17141;SDS011;32805;53.556;9.944;2023-10-19T02:58:50;10.88;;;8.23;;
17141;SDS011;32805;53.556;9.944;2023-10-19T03:01:17;12.00;;;8.77;;
17141;SDS011;32805;53.556;9.944;2023-10-19T03:03:50;12.93;;;8.32;;
17141;SDS011;32805;53.556;9.944;2023-10-19T03:06:18;13.98;;;9.18;;
17141;SDS011;32805;53.556;9.944;2023-10-19T03:08:46;11.25;;;8.60;;
17141;SDS011;32805;53.556;9.944;2023-10-19T03:11:14;13.20;;;8.32;;
17141;SDS011;32805;53.556;9.944;2023-10-19T03:13:40;12.23;;;8.23;;
17141;SDS011;32805;53.556;9.944;2023-10-19T03:16:09;11.23;;;8.20;;
17141;SDS011;32805;53.556;9.944;2023-10-19T03:18:37;11.52;;;8.68;;
17141;SDS011;32805;53.556;9.944;2023-10-19T03:21:06;11.65;;;9.40;;
17141;SDS011;32805;53.556;9.944;2023-10-19T03:23:34;12.50;;;8.30;;
17141;SDS011;32805;53.556;9.944;2023-10-19T03:26:01;11.60;;;9.10;;
17141;SDS011;32805;53.556;9.944;2023-10-19T03:28:46;14.63;;;9.55;;
17141;SDS011;32805;53.556;9.944;2023-10-19T03:31:14;12.82;;;9.30;;
17141;SDS011;32805;53.556;9.944;2023-10-19T03:33:44;14.65;;;10.23;;
17141;SDS011;32805;53.556;9.944;2023-10-19T03:36:15;15.50;;;10.13;;
17141;SDS011;32805;53.556;9.944;2023-10-19T03:38:43;15.43;;;10.77;;
17141;SDS011;32805;53.556;9.944;2023-10-19T03:41:12;15.00;;;9.88;;
17141;SDS011;32805;53.556;9.944;2023-10-19T03:43:40;17.73;;;10.52;;
17141;SDS011;32805;53.556;9.944;2023-10-19T03:46:08;12.57;;;10.35;;
17141;SDS011;32805;53.556;9.944;2023-10-19T03:48:49;14.48;;;10.68;;
17141;SDS011;32805;53.556;9.944;2023-10-19T03:51:18;16.40;;;11.15;;
17141;SDS011;32805;53.556;9.944;2023-10-19T03:53:51;18.98;;;10.05;;
17141;SDS011;32805;53.556;9.944;2023-10-19T03:56:21;16.10;;;10.32;;
17141;SDS011;32805;53.556;9.944;2023-10-19T03:58:50;15.98;;;11.10;;
17141;SDS011;32805;53.556;9.944;2023-10-19T04:01:18;16.27;;;11.40;;
17141;SDS011;32805;53.556;9.944;2023-10-19T04:03:47;15.43;;;11.68;;
17141;SDS011;32805;53.556;9.944;2023-10-19T04:06:15;14.32;;;10.93;;
17141;SDS011;32805;53.556;9.944;2023-10-19T04:08:44;17.95;;;12.07;;
17141;SDS011;32805;53.556;9.944;2023-10-19T04:11:17;17.40;;;11.13;;
17141;SDS011;32805;53.556;9.944;2023-10-19T04:13:59;13.98;;;10.80;;
17141;SDS011;32805;53.556;9.944;2023-10-19T04:16:30;15.27;;;11.20;;
17141;SDS011;32805;53.556;9.944;2023-10-19T04:18:58;16.92;;;11.15;;
17141;SDS011;32805;53.556;9.944;2023-10-19T04:21:25;15.02;;;11.70;;
17141;SDS011;32805;53.556;9.944;2023-10-19T04:23:54;16.60;;;11.80;;
17141;SDS011;32805;53.556;9.944;2023-10-19T04:26:23;17.92;;;12.10;;
17141;SDS011;32805;53.556;9.944;2023-10-19T04:28:51;14.73;;;11.23;;
17141;SDS011;32805;53.556;9.944;2023-10-19T04:31:18;16.33;;;11.52;;
17141;SDS011;32805;53.556;9.944;2023-10-19T04:33:50;15.02;;;11.57;;
17141;SDS011;32805;53.556;9.944;2023-10-19T04:36:17;16.98;;;12.00;;
17141;SDS011;32805;53.556;9.944;2023-10-19T04:38:47;15.55;;;11.38;;
17141;SDS011;32805;53.556;9.944;2023-10-19T04:41:16;18.15;;;12.10;;
17141;SDS011;32805;53.556;9.944;2023-10-19T04:43:44;16.30;;;10.70;;
17141;SDS011;32805;53.556;9.944;2023-10-19T04:46:16;19.38;;;11.82;;
17141;SDS011;32805;53.556;9.944;2023-10-19T04:48:45;17.52;;;12.52;;
17141;SDS011;32805;53.556;9.944;2023-10-19T04:51:13;18.48;;;12.32;;
17141;SDS011;32805;53.556;9.944;2023-10-19T04:53:40;15.82;;;11.55;;
17141;SDS011;32805;53.556;9.944;2023-10-19T04:56:08;18.67;;;12.13;;
17141;SDS011;32805;53.556;9.944;2023-10-19T04:58:37;17.83;;;12.45;;
17141;SDS011;32805;53.556;9.944;2023-10-19T05:01:05;16.60;;;12.38;;
17141;SDS011;32805;53.556;9.944;2023-10-19T05:03:32;18.65;;;12.85;;
17141;SDS011;32805;53.556;9.944;2023-10-19T05:06:00;17.27;;;12.05;;
17141;SDS011;32805;53.556;9.944;2023-10-19T05:08:28;16.23;;;11.63;;
17141;SDS011;32805;53.556;9.944;2023-10-19T05:10:56;16.73;;;11.48;;
17141;SDS011;32805;53.556;9.944;2023-10-19T05:13:25;17.25;;;12.18;;
17141;SDS011;32805;53.556;9.944;2023-10-19T05:15:55;15.77;;;12.30;;
17141;SDS011;32805;53.556;9.944;2023-10-19T05:18:22;14.95;;;11.82;;
17141;SDS011;32805;53.556;9.944;2023-10-19T05:20:50;16.50;;;12.05;;
17141;SDS011;32805;53.556;9.944;2023-10-19T05:23:22;21.02;;;12.77;;
17141;SDS011;32805;53.556;9.944;2023-10-19T05:25:50;17.67;;;11.93;;
17141;SDS011;32805;53.556;9.944;2023-10-19T05:28:18;17.52;;;12.23;;
17141;SDS011;32805;53.556;9.944;2023-10-19T05:30:48;16.77;;;11.98;;
17141;SDS011;32805;53.556;9.944;2023-10-19T05:33:17;15.90;;;11.55;;
17141;SDS011;32805;53.556;9.944;2023-10-19T05:35:47;14.93;;;11.02;;
17141;SDS011;32805;53.556;9.944;2023-10-19T05:38:14;17.38;;;12.25;;
17141;SDS011;32805;53.556;9.944;2023-10-19T05:40:42;15.23;;;11.77;;
17141;SDS011;32805;53.556;9.944;2023-10-19T05:43:10;18.23;;;12.63;;
17141;SDS011;32805;53.556;9.944;2023-10-19T05:45:38;17.27;;;11.77;;
17141;SDS011;32805;53.556;9.944;2023-10-19T05:48:07;18.27;;;12.05;;
17141;SDS011;32805;53.556;9.944;2023-10-19T05:50:36;17.55;;;12.90;;
17141;SDS011;32805;53.556;9.944;2023-10-19T05:53:04;17.35;;;12.13;;
17141;SDS011;32805;53.556;9.944;2023-10-19T05:55:32;14.90;;;11.15;;
17141;SDS011;32805;53.556;9.944;2023-10-19T05:58:00;15.38;;;11.93;;
17141;SDS011;32805;53.556;9.944;2023-10-19T06:00:30;19.10;;;12.40;;
17141;SDS011;32805;53.556;9.944;2023-10-19T06:02:58;19.33;;;12.95;;
17141;SDS011;32805;53.556;9.944;2023-10-19T06:05:26;17.30;;;12.35;;
17141;SDS011;32805;53.556;9.944;2023-10-19T06:07:55;19.65;;;12.77;;
17141;SDS011;32805;53.556;9.944;2023-10-19T06:10:22;18.25;;;12.98;;
17141;SDS011;32805;53.556;9.944;2023-10-19T06:12:51;16.95;;;12.32;;
17141;SDS011;32805;53.556;9.944;2023-10-19T06:15:19;15.27;;;12.07;;
17141;SDS011;32805;53.556;9.944;2023-10-19T06:17:47;16.05;;;12.10;;
17141;SDS011;32805;53.556;9.944;2023-10-19T06:20:15;16.95;;;13.05;;
17141;SDS011;32805;53.556;9.944;2023-10-19T06:22:53;19.27;;;12.80;;
17141;SDS011;32805;53.556;9.944;2023-10-19T06:25:24;20.25;;;12.98;;
17141;SDS011;32805;53.556;9.944;2023-10-19T06:27:52;20.02;;;13.65;;
17141;SDS011;32805;53.556;9.944;2023-10-19T06:30:20;18.77;;;12.25;;
17141;SDS011;32805;53.556;9.944;2023-10-19T06:32:50;18.58;;;12.80;;
17141;SDS011;32805;53.556;9.944;2023-10-19T06:35:18;16.70;;;11.82;;
17141;SDS011;32805;53.556;9.944;2023-10-19T06:37:45;17.77;;;12.50;;
17141;SDS011;32805;53.556;9.944;2023-10-19T06:40:14;19.10;;;12.88;;
17141;SDS011;32805;53.556;9.944;2023-10-19T06:42:44;16.45;;;11.88;;
17141;SDS011;32805;53.556;9.944;2023-10-19T06:45:12;20.10;;;13.23;;
17141;SDS011;32805;53.556;9.944;2023-10-19T06:47:41;21.75;;;13.48;;
17141;SDS011;32805;53.556;9.944;2023-10-19T06:50:11;19.88;;;11.93;;
17141;SDS011;32805;53.556;9.944;2023-10-19T06:52:39;18.50;;;12.68;;
17141;SDS011;32805;53.556;9.944;2023-10-19T06:55:07;18.20;;;12.45;;
17141;SDS011;32805;53.556;9.944;2023-10-19T06:57:40;18.05;;;12.93;;
17141;SDS011;32805;53.556;9.944;2023-10-19T07:00:11;17.25;;;12.27;;
17141;SDS011;32805;53.556;9.944;2023-10-19T07:02:42;18.85;;;12.77;;
17141;SDS011;32805;53.556;9.944;2023-10-19T07:05:10;17.95;;;13.20;;
17141;SDS011;32805;53.556;9.944;2023-10-19T07:07:39;18.08;;;12.57;;
17141;SDS011;32805;53.556;9.944;2023-10-19T07:10:07;16.88;;;12.80;;
17141;SDS011;32805;53.556;9.944;2023-10-19T07:12:35;16.83;;;11.75;;
17141;SDS011;32805;53.556;9.944;2023-10-19T07:15:04;26.70;;;13.68;;
17141;SDS011;32805;53.556;9.944;2023-10-19T07:17:35;18.58;;;12.88;;
17141;SDS011;32805;53.556;9.944;2023-10-19T07:20:04;18.88;;;13.05;;
17141;SDS011;32805;53.556;9.944;2023-10-19T07:22:33;17.92;;;12.35;;
17141;SDS011;32805;53.556;9.944;2023-10-19T07:25:04;18.42;;;12.90;;
17141;SDS011;32805;53.556;9.944;2023-10-19T07:27:32;17.25;;;12.75;;
17141;SDS011;32805;53.556;9.944;2023-10-19T07:30:04;18.30;;;12.35;;
17141;SDS011;32805;53.556;9.944;2023-10-19T07:32:36;17.00;;;12.63;;
17141;SDS011;32805;53.556;9.944;2023-10-19T07:35:05;15.23;;;12.38;;
17141;SDS011;32805;53.556;9.944;2023-10-19T07:37:32;17.55;;;12.70;;
17141;SDS011;32805;53.556;9.944;2023-10-19T07:40:00;19.80;;;13.65;;
17141;SDS011;32805;53.556;9.944;2023-10-19T07:42:27;19.98;;;13.70;;
17141;SDS011;32805;53.556;9.944;2023-10-19T07:44:58;15.80;;;12.75;;
17141;SDS011;32805;53.556;9.944;2023-10-19T07:47:26;18.25;;;13.00;;
17141;SDS011;32805;53.556;9.944;2023-10-19T07:49:55;17.42;;;13.63;;
17141;SDS011;32805;53.556;9.944;2023-10-19T07:52:23;19.45;;;13.70;;
17141;SDS011;32805;53.556;9.944;2023-10-19T07:54:50;16.45;;;13.10;;
17141;SDS011;32805;53.556;9.944;2023-10-19T07:57:19;19.45;;;13.70;;
17141;SDS011;32805;53.556;9.944;2023-10-19T07:59:47;20.25;;;13.90;;
17141;SDS011;32805;53.556;9.944;2023-10-19T08:02:15;21.40;;;13.75;;
17141;SDS011;32805;53.556;9.944;2023-10-19T08:04:42;20.17;;;14.07;;
17141;SDS011;32805;53.556;9.944;2023-10-19T08:07:11;19.27;;;13.23;;
17141;SDS011;32805;53.556;9.944;2023-10-19T08:09:38;15.98;;;12.63;;
17141;SDS011;32805;53.556;9.944;2023-10-19T08:12:06;17.88;;;13.27;;
17141;SDS011;32805;53.556;9.944;2023-10-19T08:14:35;16.67;;;12.93;;
17141;SDS011;32805;53.556;9.944;2023-10-19T08:17:03;20.33;;;13.73;;
17141;SDS011;32805;53.556;9.944;2023-10-19T08:19:30;20.63;;;12.85;;
17141;SDS011;32805;53.556;9.944;2023-10-19T08:21:58;20.70;;;14.13;;
17141;SDS011;32805;53.556;9.944;2023-10-19T08:24:27;21.88;;;14.20;;
17141;SDS011;32805;53.556;9.944;2023-10-19T08:26:57;17.75;;;12.40;;
17141;SDS011;32805;53.556;9.944;2023-10-19T08:29:24;18.58;;;13.13;;
17141;SDS011;32805;53.556;9.944;2023-10-19T08:31:51;17.67;;;12.88;;
17141;SDS011;32805;53.556;9.944;2023-10-19T08:34:19;17.65;;;12.90;;
17141;SDS011;32805;53.556;9.944;2023-10-19T08:36:49;19.02;;;13.75;;
17141;SDS011;32805;53.556;9.944;2023-10-19T08:39:17;18.95;;;12.93;;
17141;SDS011;32805;53.556;9.944;2023-10-19T08:41:46;18.90;;;12.50;;
17141;SDS011;32805;53.556;9.944;2023-10-19T08:44:19;16.73;;;13.02;;
17141;SDS011;32805;53.556;9.944;2023-10-19T08:46:47;18.17;;;13.43;;
17141;SDS011;32805;53.556;9.944;2023-10-19T08:49:15;16.48;;;12.88;;
17141;SDS011;32805;53.556;9.944;2023-10-19T08:51:43;18.98;;;13.13;;
17141;SDS011;32805;53.556;9.944;2023-10-19T08:54:11;17.50;;;13.05;;
17141;SDS011;32805;53.556;9.944;2023-10-19T08:56:39;19.20;;;14.50;;
17141;SDS011;32805;53.556;9.944;2023-10-19T08:59:08;17.70;;;13.25;;
17141;SDS011;32805;53.556;9.944;2023-10-19T09:01:38;19.42;;;13.82;;
17141;SDS011;32805;53.556;9.944;2023-10-19T09:04:06;16.85;;;12.68;;
17141;SDS011;32805;53.556;9.944;2023-10-19T09:06:34;19.75;;;14.27;;
17141;SDS011;32805;53.556;9.944;2023-10-19T09:09:08;16.40;;;13.20;;
17141;SDS011;32805;53.556;9.944;2023-10-19T09:11:40;17.17;;;13.00;;
17141;SDS011;32805;53.556;9.944;2023-10-19T09:14:09;17.67;;;13.30;;
17141;SDS011;32805;53.556;9.944;2023-10-19T09:16:40;18.70;;;13.20;;
17141;SDS011;32805;53.556;9.944;2023-10-19T09:19:29;17.75;;;13.43;;
17141;SDS011;32805;53.556;9.944;2023-10-19T09:22:02;19.65;;;14.40;;
17141;SDS011;32805;53.556;9.944;2023-10-19T09:24:34;19.05;;;14.55;;
17141;SDS011;32805;53.556;9.944;2023-10-19T09:27:02;20.70;;;14.35;;
17141;SDS011;32805;53.556;9.944;2023-10-19T09:29:31;19.70;;;14.57;;
17141;SDS011;32805;53.556;9.944;2023-10-19T09:31:59;21.42;;;14.85;;
17141;SDS011;32805;53.556;9.944;2023-10-19T09:34:29;21.48;;;14.60;;
17141;SDS011;32805;53.556;9.944;2023-10-19T09:36:59;19.13;;;13.73;;
17141;SDS011;32805;53.556;9.944;2023-10-19T09:39:28;21.42;;;13.80;;
17141;SDS011;32805;53.556;9.944;2023-10-19T09:42:01;19.77;;;13.20;;
17141;SDS011;32805;53.556;9.944;2023-10-19T09:44:34;18.13;;;14.32;;
17141;SDS011;32805;53.556;9.944;2023-10-19T09:47:07;18.17;;;13.15;;
17141;SDS011;32805;53.556;9.944;2023-10-19T09:49:37;18.02;;;13.45;;
17141;SDS011;32805;53.556;9.944;2023-10-19T09:52:04;21.27;;;13.95;;
17141;SDS011;32805;53.556;9.944;2023-10-19T09:54:40;19.95;;;13.88;;
17141;SDS011;32805;53.556;9.944;2023-10-19T09:57:12;18.55;;;13.98;;
17141;SDS011;32805;53.556;9.944;2023-10-19T09:59:45;20.45;;;14.52;;
17141;SDS011;32805;53.556;9.944;2023-10-19T10:02:15;17.95;;;14.10;;
17141;SDS011;32805;53.556;9.944;2023-10-19T10:04:44;20.63;;;13.23;;
17141;SDS011;32805;53.556;9.944;2023-10-19T10:07:13;20.83;;;14.88;;
17141;SDS011;32805;53.556;9.944;2023-10-19T10:09:57;18.65;;;15.18;;
17141;SDS011;32805;53.556;9.944;2023-10-19T10:12:26;18.65;;;14.15;;
17141;SDS011;32805;53.556;9.944;2023-10-19T10:14:57;18.58;;;13.30;;
17141;SDS011;32805;53.556;9.944;2023-10-19T10:17:25;21.50;;;14.98;;
17141;SDS011;32805;53.556;9.944;2023-10-19T10:19:54;19.35;;;14.52;;
17141;SDS011;32805;53.556;9.944;2023-10-19T10:22:23;22.50;;;16.20;;
17141;SDS011;32805;53.556;9.944;2023-10-19T10:24:53;20.90;;;14.85;;
17141;SDS011;32805;53.556;9.944;2023-10-19T10:27:21;18.27;;;14.85;;
17141;SDS011;32805;53.556;9.944;2023-10-19T10:29:58;19.40;;;14.38;;
17141;SDS011;32805;53.556;9.944;2023-10-19T10:32:44;19.98;;;15.07;;
17141;SDS011;32805;53.556;9.944;2023-10-19T10:38:00;20.42;;;15.07;;
17141;SDS011;32805;53.556;9.944;2023-10-19T10:40:28;20.02;;;14.43;;
17141;SDS011;32805;53.556;9.944;2023-10-19T10:43:04;20.42;;;14.30;;
17141;SDS011;32805;53.556;9.944;2023-10-19T10:45:33;18.92;;;15.18;;
17141;SDS011;32805;53.556;9.944;2023-10-19T10:48:01;18.65;;;15.30;;
17141;SDS011;32805;53.556;9.944;2023-10-19T10:50:30;20.08;;;14.90;;
17141;SDS011;32805;53.556;9.944;2023-10-19T10:52:57;21.60;;;14.88;;
17141;SDS011;32805;53.556;9.944;2023-10-19T10:55:26;17.95;;;14.40;;
17141;SDS011;32805;53.556;9.944;2023-10-19T10:57:54;19.63;;;15.13;;
17141;SDS011;32805;53.556;9.944;2023-10-19T11:00:20;22.02;;;15.70;;
17141;SDS011;32805;53.556;9.944;2023-10-19T11:03:00;20.80;;;15.20;;
17141;SDS011;32805;53.556;9.944;2023-10-19T11:05:28;20.05;;;14.65;;
17141;SDS011;32805;53.556;9.944;2023-10-19T11:10:40;19.00;;;15.10;;
17141;SDS011;32805;53.556;9.944;2023-10-19T11:13:09;20.92;;;15.88;;
17141;SDS011;32805;53.556;9.944;2023-10-19T11:15:37;19.33;;;15.27;;
17141;SDS011;32805;53.556;9.944;2023-10-19T11:18:10;19.38;;;15.68;;
17141;SDS011;32805;53.556;9.944;2023-10-19T11:20:37;21.58;;;15.48;;
17141;SDS011;32805;53.556;9.944;2023-10-19T11:23:05;21.52;;;15.70;;
17141;SDS011;32805;53.556;9.944;2023-10-19T11:25:33;20.45;;;15.43;;
17141;SDS011;32805;53.556;9.944;2023-10-19T11:28:01;20.48;;;15.05;;
17141;SDS011;32805;53.556;9.944;2023-10-19T11:30:31;20.02;;;15.90;;
17141;SDS011;32805;53.556;9.944;2023-10-19T11:32:59;20.45;;;16.52;;
17141;SDS011;32805;53.556;9.944;2023-10-19T11:50:58;20.90;;;15.68;;
17141;SDS011;32805;53.556;9.944;2023-10-19T11:56:38;23.38;;;16.65;;
17141;SDS011;32805;53.556;9.944;2023-10-19T11:59:05;20.52;;;15.57;;
17141;SDS011;32805;53.556;9.944;2023-10-19T12:01:33;22.00;;;15.55;;
17141;SDS011;32805;53.556;9.944;2023-10-19T12:04:01;22.63;;;16.80;;
17141;SDS011;32805;53.556;9.944;2023-10-19T12:06:30;25.13;;;18.30;;
17141;SDS011;32805;53.556;9.944;2023-10-19T12:09:10;23.05;;;16.80;;
17141;SDS011;32805;53.556;9.944;2023-10-19T12:11:42;23.88;;;17.08;;
17141;SDS011;32805;53.556;9.944;2023-10-19T12:14:13;20.15;;;15.93;;
17141;SDS011;32805;53.556;9.944;2023-10-19T12:16:42;22.80;;;15.45;;
17141;SDS011;32805;53.556;9.944;2023-10-19T12:19:09;20.90;;;15.45;;
17141;SDS011;32805;53.556;9.944;2023-10-19T12:21:38;23.33;;;16.52;;
17141;SDS011;32805;53.556;9.944;2023-10-19T12:24:07;22.42;;;16.02;;
17141;SDS011;32805;53.556;9.944;2023-10-19T12:26:35;20.50;;;16.00;;
17141;SDS011;32805;53.556;9.944;2023-10-19T12:29:02;20.83;;;14.75;;
17141;SDS011;32805;53.556;9.944;2023-10-19T12:31:31;20.63;;;14.70;;
17141;SDS011;32805;53.556;9.944;2023-10-19T12:33:59;18.48;;;14.57;;
17141;SDS011;32805;53.556;9.944;2023-10-19T12:36:27;19.58;;;14.45;;
17141;SDS011;32805;53.556;9.944;2023-10-19T12:38:59;18.48;;;13.55;;
17141;SDS011;32805;53.556;9.944;2023-10-19T12:41:27;18.83;;;13.98;;
17141;SDS011;32805;53.556;9.944;2023-10-19T12:43:55;18.48;;;14.57;;
17141;SDS011;32805;53.556;9.944;2023-10-19T12:46:25;20.55;;;15.43;;
17141;SDS011;32805;53.556;9.944;2023-10-19T12:48:54;17.85;;;14.70;;
17141;SDS011;32805;53.556;9.944;2023-10-19T12:51:22;19.77;;;15.43;;
17141;SDS011;32805;53.556;9.944;2023-10-19T12:53:50;18.58;;;14.18;;
17141;SDS011;32805;53.556;9.944;2023-10-19T12:56:20;18.38;;;14.45;;
17141;SDS011;32805;53.556;9.944;2023-10-19T13:05:50;17.10;;;13.75;;
17141;SDS011;32805;53.556;9.944;2023-10-19T13:08:18;19.38;;;14.65;;
17141;SDS011;32805;53.556;9.944;2023-10-19T13:10:46;18.83;;;14.98;;
17141;SDS011;32805;53.556;9.944;2023-10-19T13:13:16;18.27;;;13.88;;
17141;SDS011;32805;53.556;9.944;2023-10-19T13:15:44;19.20;;;15.25;;
17141;SDS011;32805;53.556;9.944;2023-10-19T13:18:12;21.33;;;15.68;;
17141;SDS011;32805;53.556;9.944;2023-10-19T13:20:46;21.05;;;15.52;;
17141;SDS011;32805;53.556;9.944;2023-10-19T13:23:14;21.92;;;14.93;;
17141;SDS011;32805;53.556;9.944;2023-10-19T13:25:43;18.98;;;14.93;;
17141;SDS011;32805;53.556;9.944;2023-10-19T13:28:18;23.50;;;16.38;;
17141;SDS011;32805;53.556;9.944;2023-10-19T13:30:46;20.38;;;15.02;;
17141;SDS011;32805;53.556;9.944;2023-10-19T13:33:14;19.05;;;14.30;;
17141;SDS011;32805;53.556;9.944;2023-10-19T13:35:43;20.10;;;14.65;;
17141;SDS011;32805;53.556;9.944;2023-10-19T13:38:11;19.00;;;14.57;;
17141;SDS011;32805;53.556;9.944;2023-10-19T13:40:40;19.55;;;13.50;;
17141;SDS011;32805;53.556;9.944;2023-10-19T13:43:08;18.13;;;13.93;;
17141;SDS011;32805;53.556;9.944;2023-10-19T13:45:41;18.83;;;13.98;;
17141;SDS011;32805;53.556;9.944;2023-10-19T13:48:10;21.45;;;13.63;;
17141;SDS011;32805;53.556;9.944;2023-10-19T13:50:40;20.85;;;14.43;;
17141;SDS011;32805;53.556;9.944;2023-10-19T13:53:09;19.23;;;14.13;;
17141;SDS011;32805;53.556;9.944;2023-10-19T13:55:36;20.65;;;13.20;;
17141;SDS011;32805;53.556;9.944;2023-10-19T13:58:04;19.75;;;14.60;;
17141;SDS011;32805;53.556;9.944;2023-10-19T14:00:32;20.92;;;13.63;;
17141;SDS011;32805;53.556;9.944;2023-10-19T14:03:08;19.63;;;14.35;;
17141;SDS011;32805;53.556;9.944;2023-10-19T14:05:37;17.73;;;13.23;;
17141;SDS011;32805;53.556;9.944;2023-10-19T14:08:05;18.95;;;14.38;;
17141;SDS011;32805;53.556;9.944;2023-10-19T14:10:35;18.88;;;13.80;;
17141;SDS011;32805;53.556;9.944;2023-10-19T14:13:02;17.02;;;13.13;;
17141;SDS011;32805;53.556;9.944;2023-10-19T14:15:31;19.88;;;13.52;;
17141;SDS011;32805;53.556;9.944;2023-10-19T14:18:00;18.15;;;14.13;;
17141;SDS011;32805;53.556;9.944;2023-10-19T14:20:30;18.88;;;12.63;;
17141;SDS011;32805;53.556;9.944;2023-10-19T14:22:57;17.55;;;12.80;;
17141;SDS011;32805;53.556;9.944;2023-10-19T14:25:25;21.58;;;12.77;;
17141;SDS011;32805;53.556;9.944;2023-10-19T14:27:54;16.50;;;12.45;;
17141;SDS011;32805;53.556;9.944;2023-10-19T14:30:26;19.08;;;13.73;;
17141;SDS011;32805;53.556;9.944;2023-10-19T14:32:54;17.65;;;13.48;;
17141;SDS011;32805;53.556;9.944;2023-10-19T14:35:24;16.48;;;12.50;;
17141;SDS011;32805;53.556;9.944;2023-10-19T14:37:54;17.00;;;13.32;;
17141;SDS011;32805;53.556;9.944;2023-10-19T14:40:22;19.98;;;13.55;;
17141;SDS011;32805;53.556;9.944;2023-10-19T14:42:51;18.27;;;13.75;;
17141;SDS011;32805;53.556;9.944;2023-10-19T14:45:21;18.73;;;13.50;;
17141;SDS011;32805;53.556;9.944;2023-10-19T14:47:52;15.65;;;12.27;;
17141;SDS011;32805;53.556;9.944;2023-10-19T14:50:21;18.40;;;14.23;;
17141;SDS011;32805;53.556;9.944;2023-10-19T14:52:49;18.48;;;13.80;;
17141;SDS011;32805;53.556;9.944;2023-10-19T14:55:19;19.55;;;14.43;;
17141;SDS011;32805;53.556;9.944;2023-10-19T14:57:48;18.58;;;13.30;;
17141;SDS011;32805;53.556;9.944;2023-10-19T15:00:16;18.70;;;14.32;;
17141;SDS011;32805;53.556;9.944;2023-10-19T15:02:48;20.77;;;14.27;;
17141;SDS011;32805;53.556;9.944;2023-10-19T15:05:16;19.00;;;14.55;;
17141;SDS011;32805;53.556;9.944;2023-10-19T15:07:45;19.15;;;14.38;;
17141;SDS011;32805;53.556;9.944;2023-10-19T15:10:13;21.92;;;14.88;;